createdAt,value
2023-03-25T00:01:14.539Z,97574.59
2023-03-25T00:04:21.598Z,97574.63
2023-03-25T00:07:29.220Z,97576.38
2023-03-25T00:10:35.796Z,97574.22
2023-03-25T00:13:42.935Z,97577.53
2023-03-25T00:16:53.746Z,97576.59
2023-03-25T00:20:01.951Z,97573.25
2023-03-25T00:23:09.405Z,97566.28
2023-03-25T00:26:17.640Z,97583.59
2023-03-25T00:29:29.721Z,97587.31
2023-03-25T00:32:37.807Z,97576.69
2023-03-25T00:35:46.853Z,97580.22
2023-03-25T00:38:53.727Z,97584.16
2023-03-25T00:42:00.131Z,97576.69
2023-03-25T00:45:08.783Z,97571.34
2023-03-25T00:48:17.765Z,97568.16
2023-03-25T00:51:24.669Z,97561.44
2023-03-25T00:54:35.021Z,97557.66
2023-03-25T00:57:41.517Z,97550.06
2023-03-25T01:00:57.224Z,97545.66
2023-03-25T01:04:15.833Z,97551.34
2023-03-25T01:07:26.084Z,97549.06
2023-03-25T01:10:36.811Z,97548.25
2023-03-25T01:13:50.378Z,97547.53
2023-03-25T01:17:02.434Z,97545.34
2023-03-25T01:20:16.335Z,97561.72
2023-03-25T01:23:23.930Z,97551.00
2023-03-25T01:26:31.377Z,97544.09
2023-03-25T01:29:41.390Z,97545.63
2023-03-25T01:32:56.063Z,97537.53
2023-03-25T01:36:04.882Z,97531.66
2023-03-25T01:39:17.785Z,97538.31
2023-03-25T01:42:25.164Z,97536.72
2023-03-25T01:45:33.599Z,97532.25
2023-03-25T01:48:42.241Z,97530.53
2023-03-25T01:51:53.067Z,97532.53
2023-03-25T01:55:03.862Z,97536.19
2023-03-25T01:58:15.329Z,97528.47
2023-03-25T02:01:23.654Z,97513.09
2023-03-25T02:04:44.653Z,97503.03
2023-03-25T02:07:55.116Z,97506.00
2023-03-25T02:11:07.650Z,97501.44
2023-03-25T02:14:17.901Z,97497.03
2023-03-25T02:17:35.870Z,97504.94
2023-03-25T02:21:27.572Z,97512.97
2023-03-25T02:24:54.909Z,97515.44
2023-03-25T02:28:10.756Z,97519.28
2023-03-25T02:31:48.380Z,97527.66
2023-03-25T02:35:25.831Z,97536.78
2023-03-25T02:38:41.193Z,97560.69
2023-03-25T02:41:54.461Z,97610.63
2023-03-25T02:45:04.995Z,97609.72
2023-03-25T02:48:17.418Z,97618.66
2023-03-25T02:51:27.375Z,97608.66
2023-03-25T02:54:37.680Z,97606.16
2023-03-25T02:57:49.710Z,97575.25
2023-03-25T03:00:59.570Z,97557.69
2023-03-25T03:04:07.645Z,97560.13
2023-03-25T03:07:23.475Z,97555.06
2023-03-25T03:10:40.580Z,97554.25
2023-03-25T03:14:14.364Z,97541.19
2023-03-25T03:17:26.935Z,97536.09
2023-03-25T03:20:42.679Z,97530.97
2023-03-25T03:24:00.901Z,97524.53
2023-03-25T03:27:25.752Z,97525.06
2023-03-25T03:30:39.531Z,97536.75
2023-03-25T03:33:54.839Z,97534.88
2023-03-25T03:37:07.773Z,97543.69
2023-03-25T03:40:19.979Z,97545.63
2023-03-25T03:43:31.534Z,97561.13
2023-03-25T03:46:45.094Z,97564.09
2023-03-25T03:50:02.347Z,97582.56
2023-03-25T03:53:20.570Z,97586.59
2023-03-25T03:56:32.702Z,97590.56
2023-03-25T03:59:56.708Z,97586.28
2023-03-25T04:03:28.265Z,97593.34
2023-03-25T04:06:42.412Z,97587.63
2023-03-25T04:09:57.920Z,97586.56
2023-03-25T04:13:07.941Z,97596.97
2023-03-25T04:16:36.069Z,97596.16
2023-03-25T04:19:44.628Z,97595.53
2023-03-25T04:23:00.496Z,97595.03
2023-03-25T04:26:09.924Z,97595.88
2023-03-25T04:29:15.962Z,97596.94
2023-03-25T04:32:25.212Z,97592.91
2023-03-25T04:35:34.472Z,97590.28
2023-03-25T04:38:42.347Z,97590.28
2023-03-25T04:41:51.568Z,97589.53
2023-03-25T04:45:00.319Z,97596.22
2023-03-25T04:48:15.660Z,97589.81
2023-03-25T04:51:24.247Z,97587.25
2023-03-25T04:54:31.017Z,97589.09
2023-03-25T04:57:36.913Z,97592.31
2023-03-25T05:00:43.922Z,97593.09
2023-03-25T05:03:52.310Z,97603.28
2023-03-25T05:07:03.690Z,97619.59
2023-03-25T05:10:13.213Z,97611.88
2023-03-25T05:13:21.869Z,97613.50
2023-03-25T05:16:33.424Z,97617.22
2023-03-25T05:19:46.272Z,97609.63
2023-03-25T05:22:54.264Z,97620.28
2023-03-25T05:26:00.883Z,97613.81
2023-03-25T05:29:09.014Z,97616.75
2023-03-25T05:32:19.317Z,97617.78
2023-03-25T05:35:29.812Z,97613.31
2023-03-25T05:38:38.629Z,97601.41
2023-03-25T05:41:46.417Z,97603.50
2023-03-25T05:44:54.264Z,97604.41
2023-03-25T05:48:00.004Z,97608.13
2023-03-25T05:51:10.322Z,97606.94
2023-03-25T05:54:18.403Z,97610.63
2023-03-25T05:57:24.871Z,97607.91
2023-03-25T06:00:35.520Z,97613.00
2023-03-25T06:03:43.953Z,97616.75
2023-03-25T06:06:54.778Z,97625.00
2023-03-25T06:10:01.447Z,97627.97
2023-03-25T06:13:07.870Z,97632.13
2023-03-25T06:16:13.141Z,97643.66
2023-03-25T06:19:20.862Z,97644.41
2023-03-25T06:22:29.122Z,97655.13
2023-03-25T06:25:36.833Z,97646.13
2023-03-25T06:28:42.700Z,97651.00
2023-03-25T06:31:48.323Z,97648.00
2023-03-25T06:34:54.724Z,97648.97
2023-03-25T06:38:03.106Z,97644.72
2023-03-25T06:41:18.072Z,97644.78
2023-03-25T06:44:24.638Z,97651.31
2023-03-25T06:47:32.371Z,97648.91
2023-03-25T06:50:39.390Z,97647.84
2023-03-25T06:53:47.729Z,97647.91
2023-03-25T06:56:53.444Z,97655.44
2023-03-25T07:00:00.699Z,97645.94
2023-03-25T07:03:07.359Z,97652.22
2023-03-25T07:06:18.485Z,97647.56
2023-03-25T07:09:27.090Z,97641.28
2023-03-25T07:12:32.622Z,97641.84
2023-03-25T07:15:38.496Z,97635.34
2023-03-25T07:18:44.373Z,97642.09
2023-03-25T07:21:51.029Z,97648.16
2023-03-25T07:25:03.625Z,97661.63
2023-03-25T07:28:11.658Z,97654.13
2023-03-25T07:31:19.544Z,97649.81
2023-03-25T07:34:26.363Z,97655.13
2023-03-25T07:37:32.265Z,97653.22
2023-03-25T07:40:39.833Z,97656.81
2023-03-25T07:43:47.141Z,97660.56
2023-03-25T07:47:03.863Z,97659.75
2023-03-25T07:50:15.147Z,97652.41
2023-03-25T07:53:43.754Z,97653.03
2023-03-25T07:56:55.429Z,97656.81
2023-03-25T08:00:03.263Z,97653.34
2023-03-25T08:03:19.645Z,97639.91
2023-03-25T08:06:38.487Z,97633.06
2023-03-25T08:09:56.243Z,97640.41
2023-03-25T08:13:10.121Z,97637.88
2023-03-25T08:16:18.264Z,97637.03
2023-03-25T08:19:27.848Z,97642.59
2023-03-25T08:22:34.925Z,97644.25
2023-03-25T08:25:46.508Z,97649.34
2023-03-25T08:29:00.511Z,97641.47
2023-03-25T08:32:04.784Z,97645.16
2023-03-25T08:35:08.568Z,97640.09
2023-03-25T08:38:12.231Z,97647.22
2023-03-25T08:41:15.072Z,97648.38
2023-03-25T08:44:19.158Z,97646.88
2023-03-25T08:47:21.842Z,97661.75
2023-03-25T08:50:24.557Z,97662.72
2023-03-25T08:53:27.735Z,97669.28
2023-03-25T08:56:30.636Z,97660.41
2023-03-25T08:59:35.296Z,97664.66
2023-03-25T09:02:38.058Z,97679.81
2023-03-25T09:05:41.387Z,97681.94
2023-03-25T09:08:44.166Z,97672.34
2023-03-25T09:11:53.408Z,97663.84
2023-03-25T09:14:57.483Z,97658.88
2023-03-25T09:18:00.614Z,97652.25
2023-03-25T09:21:03.993Z,97653.63
2023-03-25T09:24:09.127Z,97655.00
2023-03-25T09:27:11.905Z,97651.38
2023-03-25T09:30:17.265Z,97655.81
2023-03-25T09:33:20.175Z,97647.84
2023-03-25T09:36:23.114Z,97649.94
2023-03-25T09:39:25.941Z,97631.16
2023-03-25T09:43:00.811Z,97636.66
2023-03-25T09:46:06.502Z,97637.47
2023-03-25T09:49:15.535Z,97630.72
2023-03-25T09:52:23.716Z,97638.09
2023-03-25T09:55:29.577Z,97645.25
2023-03-25T09:58:41.463Z,97640.97
2023-03-25T10:01:50.728Z,97633.44
2023-03-25T10:05:16.653Z,97632.00
2023-03-25T10:08:30.325Z,97623.63
2023-03-25T10:11:42.148Z,97617.31
2023-03-25T10:14:55.589Z,97610.69
2023-03-25T10:18:23.787Z,97606.63
2023-03-25T10:21:33.896Z,97602.59
2023-03-25T10:24:41.918Z,97613.41
2023-03-25T10:27:47.889Z,97602.53
2023-03-25T10:30:54.501Z,97609.13
2023-03-25T10:34:04.337Z,97608.13
2023-03-25T10:37:13.515Z,97609.31
2023-03-25T10:40:25.446Z,97614.47
2023-03-25T10:43:32.865Z,97602.50
2023-03-25T10:46:43.720Z,97605.63
2023-03-25T10:49:49.462Z,97609.97
2023-03-25T10:52:55.223Z,97598.97
2023-03-25T10:56:03.780Z,97605.91
2023-03-25T10:59:18.407Z,97595.13
2023-03-25T11:02:25.340Z,97595.97
2023-03-25T11:05:30.710Z,97592.53
2023-03-25T11:08:33.795Z,97587.19
2023-03-25T11:11:37.806Z,97584.66
2023-03-25T11:14:41.952Z,97590.69
2023-03-25T11:17:47.394Z,97587.38
2023-03-25T11:20:53.279Z,97597.19
2023-03-25T11:23:56.206Z,97622.00
2023-03-25T11:26:59.622Z,97590.22
2023-03-25T11:30:05.419Z,97578.47
2023-03-25T11:33:17.429Z,97581.47
2023-03-25T11:36:30.033Z,97571.28
2023-03-25T11:39:36.375Z,97580.31
2023-03-25T11:42:42.760Z,97568.69
2023-03-25T11:45:46.507Z,97567.81
2023-03-25T11:48:50.111Z,97569.81
2023-03-25T11:51:59.966Z,97569.75
2023-03-25T11:55:03.092Z,97573.50
2023-03-25T11:58:06.246Z,97571.59
2023-03-25T12:01:22.765Z,97575.44
2023-03-25T12:04:26.191Z,97600.72
2023-03-25T12:07:31.547Z,97597.16
2023-03-25T12:10:46.923Z,97580.25
2023-03-25T12:14:19.003Z,97573.63
2023-03-25T12:17:30.711Z,97568.94
2023-03-25T12:20:41.510Z,97579.91
2023-03-25T12:23:55.476Z,97584.19
2023-03-25T12:27:18.648Z,97586.97
2023-03-25T12:30:35.358Z,97586.34
2023-03-25T12:33:56.310Z,97614.53
2023-03-25T12:37:06.771Z,97610.56
2023-03-25T12:40:36.786Z,97635.41
2023-03-25T12:43:53.642Z,97579.44
2023-03-25T12:47:23.290Z,97665.78
2023-03-25T12:50:38.791Z,97639.28
2023-03-25T12:53:51.297Z,97626.63
2023-03-25T12:57:04.588Z,97632.72
2023-03-25T13:00:21.971Z,97623.13
2023-03-25T13:03:49.194Z,97612.56
2023-03-25T13:07:00.602Z,97619.91
2023-03-25T13:10:08.006Z,97600.53
2023-03-25T13:13:17.192Z,97612.00
2023-03-25T13:16:23.856Z,97599.78
2023-03-25T13:19:30.338Z,97608.66
2023-03-25T13:22:37.760Z,97605.63
2023-03-25T13:25:49.557Z,97609.44
2023-03-25T13:28:59.036Z,97609.44
2023-03-25T13:32:07.773Z,97613.38
2023-03-25T13:35:16.808Z,97607.53
2023-03-25T13:38:27.219Z,97603.25
2023-03-25T13:41:34.315Z,97604.38
2023-03-25T13:44:41.489Z,97602.94
2023-03-25T13:47:49.694Z,97617.88
2023-03-25T13:50:53.213Z,97585.44
2023-03-25T13:54:00.656Z,97599.38
2023-03-25T13:57:32.517Z,97599.97
2023-03-25T14:01:04.177Z,97605.38
2023-03-25T14:04:36.789Z,97615.66
2023-03-25T14:08:11.455Z,97621.50
2023-03-25T14:11:23.294Z,97630.56
2023-03-25T14:14:27.703Z,97668.84
2023-03-25T14:17:35.675Z,97676.97
2023-03-25T14:20:41.857Z,97648.56
2023-03-25T14:23:44.994Z,97641.06
2023-03-25T14:26:51.711Z,97631.72
2023-03-25T14:29:58.877Z,97625.09
2023-03-25T14:33:04.184Z,97625.19
2023-03-25T14:36:08.000Z,97620.25
2023-03-25T14:39:12.962Z,97611.75
2023-03-25T14:42:29.932Z,97616.38
2023-03-25T14:45:51.702Z,97606.88
2023-03-25T14:49:19.373Z,97614.50
2023-03-25T14:52:30.001Z,97596.75
2023-03-25T14:55:35.672Z,97598.66
2023-03-25T14:58:40.101Z,97582.88
2023-03-25T15:01:46.783Z,97585.88
2023-03-25T15:04:56.236Z,97591.41
2023-03-25T15:08:02.136Z,97587.91
2023-03-25T15:11:08.900Z,97585.34
2023-03-25T15:14:17.182Z,97574.31
2023-03-25T15:17:43.138Z,97569.81
2023-03-25T15:20:47.423Z,97574.31
2023-03-25T15:23:53.725Z,97576.28
2023-03-25T15:26:58.225Z,97573.97
2023-03-25T15:30:11.141Z,97571.44
2023-03-25T15:33:26.412Z,97572.22
2023-03-25T15:36:46.939Z,97574.16
2023-03-25T15:40:06.532Z,97571.44
2023-03-25T15:43:50.168Z,97573.84
2023-03-25T15:47:31.263Z,97582.13
2023-03-25T15:50:45.779Z,97582.13
2023-03-25T15:54:02.239Z,97574.50
2023-03-25T15:57:17.151Z,97565.75
2023-03-25T16:00:26.488Z,97575.09
2023-03-25T16:03:31.948Z,97571.94
2023-03-25T16:06:41.311Z,97572.56
2023-03-25T16:09:48.793Z,97570.97
2023-03-25T16:12:51.781Z,97573.53
2023-03-25T16:15:58.028Z,97570.84
2023-03-25T16:19:01.788Z,97584.78
2023-03-25T16:22:13.515Z,97586.22
2023-03-25T16:25:21.201Z,97584.16
2023-03-25T16:28:28.704Z,97570.75
2023-03-25T16:31:34.900Z,97591.34
2023-03-25T16:34:42.132Z,97584.91
2023-03-25T16:37:45.106Z,97584.22
2023-03-25T16:40:51.223Z,97584.75
2023-03-25T16:43:54.961Z,97572.06
2023-03-25T16:46:57.927Z,97585.31
2023-03-25T16:50:02.821Z,97585.38
2023-03-25T16:53:06.831Z,97577.72
2023-03-25T16:56:25.131Z,97584.66
2023-03-25T16:59:30.372Z,97582.13
2023-03-25T17:02:41.305Z,97581.78
2023-03-25T17:06:12.829Z,97595.44
2023-03-25T17:09:19.001Z,97582.19
2023-03-25T17:12:25.119Z,97586.56
2023-03-25T17:15:28.117Z,97589.34
2023-03-25T17:18:33.382Z,97592.03
2023-03-25T17:21:56.626Z,97587.09
2023-03-25T17:25:18.479Z,97582.63
2023-03-25T17:28:29.372Z,97590.09
2023-03-25T17:31:36.427Z,97598.19
2023-03-25T17:34:45.539Z,97598.59
2023-03-25T17:37:50.382Z,97597.41
2023-03-25T17:41:02.243Z,97594.41
2023-03-25T17:44:06.632Z,97598.63
2023-03-25T17:47:15.412Z,97605.59
2023-03-25T17:50:20.750Z,97602.00
2023-03-25T17:53:23.792Z,97607.50
2023-03-25T17:56:29.694Z,97619.66
2023-03-25T17:59:32.675Z,97617.66
2023-03-25T18:02:35.693Z,97629.09
2023-03-25T18:05:38.617Z,97642.16
2023-03-25T18:08:42.026Z,97651.94
2023-03-25T18:11:47.749Z,97662.41
2023-03-25T18:14:50.921Z,97665.00
2023-03-25T18:17:55.485Z,97662.81
2023-03-25T18:20:59.782Z,97675.28
2023-03-25T18:24:02.606Z,97681.53
2023-03-25T18:27:06.695Z,97675.78
2023-03-25T18:30:29.086Z,97667.28
2023-03-25T18:33:34.648Z,97668.47
2023-03-25T18:36:37.571Z,97670.91
2023-03-25T18:39:40.196Z,97672.47
2023-03-25T18:42:44.344Z,97672.97
2023-03-25T18:45:47.975Z,97679.75
2023-03-25T18:48:50.816Z,97687.41
2023-03-25T18:51:54.917Z,97687.81
2023-03-25T18:54:57.643Z,97690.59
2023-03-25T18:58:02.263Z,97690.22
2023-03-25T19:01:07.503Z,97689.22
2023-03-25T19:04:10.491Z,97700.66
2023-03-25T19:07:13.288Z,97696.31
2023-03-25T19:10:18.582Z,97699.63
2023-03-25T19:13:22.788Z,97677.22
2023-03-25T19:16:25.648Z,97689.63
2023-03-25T19:19:28.496Z,97701.72
2023-03-25T19:22:32.769Z,97720.03
2023-03-25T19:25:35.551Z,97741.22
2023-03-25T19:28:39.728Z,97748.50
2023-03-25T19:31:43.684Z,97772.25
2023-03-25T19:34:47.880Z,97763.22
2023-03-25T19:37:51.750Z,97765.72
2023-03-25T19:41:03.018Z,97768.56
2023-03-25T19:44:07.152Z,97780.03
2023-03-25T19:47:09.939Z,97766.00
2023-03-25T19:50:14.435Z,97772.81
2023-03-25T19:53:17.309Z,97769.09
2023-03-25T19:56:20.175Z,97772.81
2023-03-25T19:59:24.356Z,97779.28
2023-03-25T20:02:27.236Z,97770.22
2023-03-25T20:05:31.586Z,97767.84
2023-03-25T20:08:34.457Z,97763.78
2023-03-25T20:11:37.136Z,97772.56
2023-03-25T20:14:41.679Z,97750.50
2023-03-25T20:17:45.537Z,97755.56
2023-03-25T20:20:48.539Z,97741.41
2023-03-25T20:23:51.955Z,97736.94
2023-03-25T20:26:54.762Z,97736.44
2023-03-25T20:29:59.109Z,97730.75
2023-03-25T20:33:02.206Z,97738.91
2023-03-25T20:36:05.742Z,97726.91
2023-03-25T20:39:08.784Z,97725.59
2023-03-25T20:42:12.817Z,97731.03
2023-03-25T20:45:19.037Z,97738.56
2023-03-25T20:48:22.070Z,97730.88
2023-03-25T20:51:25.774Z,97723.75
2023-03-25T20:54:29.119Z,97732.53
2023-03-25T20:57:32.047Z,97737.91
2023-03-25T21:00:36.674Z,97740.59
2023-03-25T21:03:39.423Z,97740.72
2023-03-25T21:06:42.113Z,97741.19
2023-03-25T21:09:45.049Z,97741.97
2023-03-25T21:12:47.876Z,97735.09
2023-03-25T21:15:55.687Z,97752.13
2023-03-25T21:19:01.967Z,97755.94
2023-03-25T21:22:05.203Z,97740.06
2023-03-25T21:25:08.251Z,97755.53
2023-03-25T21:28:11.431Z,97757.25
2023-03-25T21:31:20.750Z,97754.84
2023-03-25T21:34:23.478Z,97742.03
2023-03-25T21:37:27.071Z,97745.25
2023-03-25T21:40:39.872Z,97757.59
2023-03-25T21:43:43.179Z,97759.28
2023-03-25T21:46:47.346Z,97755.94
2023-03-25T21:49:50.428Z,97744.25
2023-03-25T21:52:53.169Z,97750.53
2023-03-25T21:56:00.078Z,97745.63
2023-03-25T21:59:03.569Z,97745.09
2023-03-25T22:02:08.688Z,97729.81
2023-03-25T22:05:12.489Z,97736.50
2023-03-25T22:08:15.287Z,97731.47
2023-03-25T22:11:20.181Z,97739.78
2023-03-25T22:14:22.974Z,97753.47
2023-03-25T22:17:27.507Z,97756.97
2023-03-25T22:20:30.512Z,97762.38
2023-03-25T22:23:33.328Z,97762.44
2023-03-25T22:26:39.196Z,97776.91
2023-03-25T22:29:43.036Z,97777.88
2023-03-25T22:32:47.240Z,97772.28
2023-03-25T22:35:51.089Z,97753.78
2023-03-25T22:38:56.145Z,97765.38
2023-03-25T22:41:58.938Z,97777.81
2023-03-25T22:45:01.674Z,97775.88
2023-03-25T22:48:06.399Z,97774.84
2023-03-25T22:51:11.108Z,97788.19
2023-03-25T22:54:13.881Z,97788.41
2023-03-25T22:57:16.973Z,97771.81
2023-03-25T23:00:19.963Z,97772.41
2023-03-25T23:03:25.594Z,97763.84
2023-03-25T23:06:28.665Z,97742.72
2023-03-25T23:09:42.689Z,97748.41
2023-03-25T23:12:45.719Z,97742.41
2023-03-25T23:15:48.877Z,97728.91
2023-03-25T23:18:53.396Z,97726.47
2023-03-25T23:21:56.373Z,97739.13
2023-03-25T23:24:59.797Z,97728.41
2023-03-25T23:28:05.842Z,97723.88
2023-03-25T23:31:11.494Z,97718.59
2023-03-25T23:34:17.148Z,97724.09
2023-03-25T23:37:19.989Z,97732.69
2023-03-25T23:40:22.695Z,97728.13
2023-03-25T23:43:25.531Z,97721.69
2023-03-25T23:46:28.865Z,97730.78
2023-03-25T23:49:33.277Z,97723.50
2023-03-25T23:52:35.989Z,97721.34
2023-03-25T23:55:38.945Z,97717.91
2023-03-25T23:58:41.642Z,97718.66
